Jiangcheng, China
Current Conditions -  °F | °C
As of 10:00 AM on Monday 26 Jan 2015 (Local Time) from ZPPP Reporting Station
Clear Clear  
Wind Chill: 42°   Ceiling: Unl
Heat Index: 48°   Visibility: 6mi
Dew Point: 36°   Wind: 16mph
Humidity: 62%   Direction: 210°SSW
Pressure: 30.18"   Gusts: NA
Location:  22.62°N, 101.82°E
Report Text: ZPPP 260200Z 21007MPS CAVOK 09/02 Q1022 NOSIG
Loading
Personal Weather Stations






























Interactive Weather Map New forecast layout! Learn more

10-Day Weather Forecast

Advertisements
Track Severe Weather on mobile